.
WxDataArchive / Data Records for 2013-08-27
2013-08-26 August 2013 2013-08-28

Data Records for Tuesday, 27 August 2013

Time	Temp	Chill	HIndex	Humid	Dewpt	 Wind 	HiWind	WindDir	Rain 	Barom 
-----	----	-----	------	-----	-----	------	------	-------	-----	----- 
00:00	77.2	77.2	79.0	74	68.3	0	2	270	0.00	29.996 
00:05	77.0	77.0	78.7	74	68.1	0	1	270	0.00	29.996 
00:10	76.8	76.8	78.4	74	67.9	0	1	270	0.00	29.996 
00:15	76.8	76.8	78.4	74	67.9	0	2	270	0.00	29.997 
00:20	76.8	76.8	78.4	74	67.9	0	2	270	0.00	29.997 
00:25	76.7	76.7	78.3	75	68.2	0	1	270	0.00	29.997 
00:30	76.7	76.7	78.3	75	68.2	0	3	270	0.00	29.992 
00:35	76.7	76.7	78.3	75	68.2	0	2	270	0.00	29.992 
00:40	76.7	76.7	78.3	75	68.2	0	3	270	0.00	29.992 
00:45	76.7	76.7	78.3	75	68.2	1	3	270	0.00	29.986 
00:50	76.7	76.7	78.3	75	68.2	0	2	270	0.00	29.986 
00:55	76.7	76.7	78.3	75	68.2	0	3	270	0.00	29.986 
01:00	76.7	76.7	78.3	75	68.2	0	3	270	0.00	29.986 
01:05	76.7	76.7	78.3	75	68.2	0	2	270	0.00	29.986 
01:10	76.7	76.7	78.3	75	68.2	0	1	270	0.00	29.986 
01:15	76.7	76.7	78.3	75	68.2	0	2	270	0.00	29.980 
01:20	76.5	76.5	78.0	75	68.0	0	1	270	0.00	29.980 
01:25	76.5	76.5	78.0	75	68.0	0	1	270	0.00	29.980 
01:30	76.5	76.5	78.0	76	68.4	0	2	315	0.00	29.984 
01:35	76.3	76.3	77.7	76	68.2	0	2	315	0.00	29.984 
01:40	76.3	76.3	77.7	76	68.2	0	1	315	0.00	29.984 
01:45	76.1	76.1	77.4	76	68.0	1	2	315	0.00	29.983 
01:50	76.1	76.1	77.4	76	68.0	1	3	315	0.00	29.983 
01:55	76.1	76.1	77.4	77	68.3	0	2	315	0.00	29.983 
02:00	76.1	76.1	77.4	77	68.3	1	3	315	0.00	29.979 
02:05	76.1	76.1	77.4	77	68.3	1	2	315	0.00	29.979 
02:10	76.0	76.0	77.2	77	68.3	0	2	315	0.00	29.979 
02:15	76.0	76.0	77.2	77	68.3	0	2	315	0.00	29.976 
02:20	75.8	75.8	77.0	77	68.1	0	2	315	0.00	29.976 
02:25	75.8	75.8	76.9	78	68.4	0	3	315	0.00	29.976 
02:30	75.6	75.6	76.6	78	68.2	0	2	315	0.00	29.973 
02:35	75.4	75.4	76.2	79	68.4	0	2	315	0.00	29.973 
02:40	75.4	75.4	76.2	79	68.4	0	2	315	0.00	29.973 
02:45	75.4	75.4	76.2	79	68.4	0	1	315	0.00	29.971 
02:50	75.3	75.3	76.1	79	68.3	0	2	315	0.00	29.971 
02:55	75.3	75.3	76.0	80	68.7	0	2	315	0.00	29.971 
03:00	75.1	75.1	75.7	80	68.5	0	2	315	0.00	29.972 
03:05	75.1	75.1	75.7	80	68.5	0	1	315	0.00	29.972 
03:10	75.1	75.1	75.7	80	68.5	0	3	315	0.00	29.972 
03:15	75.1	75.1	75.7	80	68.5	0	1	270	0.00	29.972 
03:20	75.1	75.1	75.6	81	68.9	0	1	270	0.00	29.972 
03:25	75.1	75.1	75.6	81	68.9	0	2	270	0.00	29.972 
03:30	75.1	75.1	75.6	81	68.9	0	1	270	0.00	29.969 
03:35	75.1	75.1	75.6	81	68.9	0	1	270	0.00	29.969 
03:40	75.1	75.1	75.6	81	68.9	0	2	270	0.00	29.969 
03:45	75.1	75.1	75.6	81	68.9	0	2	270	0.00	29.968 
03:50	75.1	75.1	75.6	81	68.9	0	2	270	0.00	29.968 
03:55	75.1	75.1	75.6	81	68.9	0	2	270	0.00	29.968 
04:00	75.1	75.1	75.6	81	68.9	0	2	270	0.00	29.967 
04:05	74.9	74.9	74.9	81	68.7	0	2	270	0.00	29.967 
04:10	74.9	74.9	74.9	81	68.7	0	3	270	0.00	29.967 
04:15	74.9	74.9	74.9	81	68.7	0	1	270	0.00	29.966 
04:20	74.9	74.9	74.9	81	68.7	0	1	270	0.00	29.966 
04:25	74.9	74.9	74.9	81	68.7	0	1	270	0.00	29.966 
04:30	74.7	74.7	74.7	81	68.5	0	2	270	0.00	29.964 
04:35	74.7	74.7	74.7	81	68.5	0	1	270	0.00	29.964 
04:40	74.7	74.7	74.7	81	68.5	0	1	270	0.00	29.964 
04:45	74.6	74.6	74.6	81	68.4	0	2	270	0.00	29.957 
04:50	74.6	74.6	74.6	82	68.7	0	1	270	0.00	29.957 
04:55	74.6	74.6	74.6	82	68.7	0	1	270	0.00	29.957 
05:00	74.6	74.6	74.6	82	68.7	0	1	270	0.00	29.955 
05:05	74.4	74.4	74.4	82	68.5	0	2	292	0.00	29.955 
05:10	74.4	74.4	74.4	82	68.5	0	1	292	0.00	29.955 
05:15	74.2	74.2	74.2	82	68.3	0	2	292	0.00	29.956 
05:20	74.0	74.0	74.0	83	68.5	0	1	292	0.00	29.956 
05:25	74.0	74.0	74.0	83	68.5	0	1	292	0.00	29.956 
05:30	73.9	73.9	73.9	84	68.7	0	1	292	0.00	29.953 
05:35	73.9	73.9	73.9	84	68.7	0	2	292	0.00	29.953 
05:40	73.9	73.9	73.9	84	68.7	0	1	292	0.00	29.953 
05:45	73.7	73.7	73.7	84	68.6	0	1	292	0.00	29.953 
05:50	73.7	73.7	73.7	84	68.6	0	1	292	0.00	29.953 
05:55	73.7	73.7	73.7	84	68.6	0	1	292	0.00	29.953 
06:00	73.7	73.7	73.7	85	68.9	0	1	292	0.00	29.960 
06:05	73.7	73.7	73.7	85	68.9	0	1	292	0.00	29.960 
06:10	73.7	73.7	73.7	85	68.9	0	1	292	0.00	29.960 
06:15	73.5	73.5	73.5	85	68.7	0	1	292	0.00	29.960 
06:20	73.7	73.7	73.7	85	68.9	0	1	292	0.00	29.960 
06:25	73.5	73.5	73.5	85	68.7	0	1	292	0.00	29.960 
06:30	73.5	73.5	73.5	85	68.7	0	1	292	0.00	29.960 
06:35	73.5	73.5	73.5	85	68.7	0	1	292	0.00	29.960 
06:40	73.5	73.5	73.5	85	68.7	0	1	292	0.00	29.960 
06:45	73.5	73.5	73.5	85	68.7	0	1	292	0.00	29.967 
06:50	73.5	73.5	73.5	85	68.7	0	1	292	0.00	29.967 
06:55	73.5	73.5	73.5	85	68.7	0	1	292	0.00	29.967 
07:00	73.3	73.3	73.3	85	68.5	0	1	292	0.00	29.971 
07:05	73.3	73.3	73.3	85	68.5	0	1	292	0.00	29.971 
07:10	73.3	73.3	73.3	85	68.5	0	1	292	0.00	29.971 
07:15	73.3	73.3	73.3	85	68.5	0	0	---	0.00	29.983 
07:20	73.2	73.2	73.2	85	68.4	0	0	---	0.00	29.983 
07:25	73.2	73.2	73.2	85	68.4	0	0	---	0.00	29.983 
07:30	73.2	73.2	73.2	85	68.4	0	0	---	0.00	29.983 
07:35	73.2	73.2	73.2	85	68.4	0	0	---	0.00	29.983 
07:40	73.2	73.2	73.2	86	68.7	0	0	---	0.00	29.983 
07:45	73.2	73.2	73.2	86	68.7	0	0	---	0.00	29.982 
07:50	73.2	73.2	73.2	86	68.7	0	1	292	0.00	29.982 
07:55	73.3	73.3	73.3	86	68.8	0	0	---	0.00	29.982 
08:00	73.3	73.3	73.3	86	68.8	0	0	---	0.00	29.985 
08:05	73.3	73.3	73.3	86	68.8	0	0	---	0.00	29.985 
08:10	73.3	73.3	73.3	85	68.5	0	1	292	0.00	29.985 
08:15	73.5	73.5	73.5	85	68.7	0	1	292	0.00	29.988 
08:20	73.5	73.5	73.5	85	68.7	0	1	292	0.00	29.988 
08:25	73.7	73.7	73.7	85	68.9	0	0	---	0.00	29.988 
08:30	73.7	73.7	73.7	85	68.9	0	0	---	0.00	29.987 
08:35	73.7	73.7	73.7	85	68.9	0	1	292	0.00	29.987 
08:40	73.7	73.7	73.7	85	68.9	0	1	292	0.00	29.987 
08:45	73.7	73.7	73.7	85	68.9	0	1	292	0.00	29.987 
08:50	73.9	73.9	73.9	85	69.1	0	0	---	0.00	29.987 
08:55	73.9	73.9	73.9	85	69.1	0	1	292	0.00	29.987 
09:00	73.9	73.9	73.9	84	68.7	0	1	292	0.00	29.985 
09:05	73.9	73.9	73.9	84	68.7	0	1	292	0.00	29.985 
09:10	73.9	73.9	73.9	84	68.7	0	0	---	0.00	29.985 
09:15	74.0	74.0	74.0	84	68.8	0	1	292	0.00	29.980 
09:20	74.0	74.0	74.0	84	68.8	0	1	292	0.00	29.980 
09:25	74.2	74.2	74.2	84	69.0	0	1	292	0.00	29.980 
09:30	74.4	74.4	74.4	84	69.2	0	1	292	0.00	29.985 
09:35	74.6	74.6	74.6	84	69.4	0	1	292	0.00	29.985 
09:40	74.9	74.9	74.9	83	69.4	0	1	292	0.00	29.985 
09:45	75.1	75.1	75.3	83	69.6	0	1	292	0.00	29.973 
09:50	75.4	75.4	75.9	82	69.5	0	1	292	0.00	29.973 
09:55	75.6	75.6	76.3	81	69.3	0	1	292	0.00	29.973 
10:00	76.0	76.0	76.9	81	69.7	0	2	292	0.00	29.961 
10:05	76.1	76.1	77.1	80	69.5	0	2	292	0.00	29.961 
10:10	76.5	76.5	77.8	80	69.9	0	1	292	0.00	29.961 
10:15	76.8	76.8	78.2	80	70.1	0	1	292	0.00	29.986 
10:20	76.8	76.8	78.3	79	69.8	0	2	292	0.00	29.986 
10:25	76.8	76.8	78.3	79	69.8	0	1	292	0.00	29.986 
10:30	77.0	77.0	78.6	80	70.3	0	1	292	0.00	29.989 
10:35	77.2	77.2	78.9	79	70.2	0	1	292	0.00	29.989 
10:40	77.7	77.7	79.8	79	70.7	0	1	292	0.00	29.989 
10:45	78.5	78.5	81.0	76	70.3	0	2	292	0.00	29.981 
10:50	79.0	79.0	81.8	75	70.4	0	1	292	0.00	29.981 
10:55	79.4	79.4	82.5	75	70.8	0	2	292	0.00	29.981 
11:00	79.6	79.6	82.6	73	70.2	1	3	292	0.00	29.978 
11:05	79.8	79.8	83.1	74	70.8	0	1	292	0.00	29.978 
11:10	79.9	79.9	83.1	73	70.4	0	1	292	0.00	29.978 
11:15	80.1	80.1	83.5	73	70.6	0	2	292	0.00	29.983 
11:20	79.9	79.9	83.1	73	70.4	0	2	292	0.00	29.983 
11:25	80.1	80.1	83.5	73	70.6	0	1	292	0.00	29.983 
11:30	80.1	80.1	83.5	73	70.6	0	1	292	0.00	29.985 
11:35	80.1	80.1	83.5	73	70.6	0	2	292	0.00	29.985 
11:40	80.1	80.1	83.5	73	70.6	0	0	---	0.00	29.985 
11:45	80.3	80.3	83.9	73	70.8	0	1	292	0.00	29.985 
11:50	80.7	80.7	84.6	73	71.2	0	2	292	0.00	29.985 
11:55	81.2	81.2	85.2	71	70.9	0	1	292	0.00	29.985 
12:00	82.0	82.0	86.9	72	72.1	0	2	292	0.00	29.974 
12:05	82.6	82.6	87.3	69	71.4	0	3	292	0.00	29.974 
12:10	82.8	82.8	87.5	68	71.1	0	2	292	0.00	29.974 
12:15	83.2	83.2	88.2	68	71.5	1	2	292	0.00	29.971 
12:20	83.6	83.6	88.7	67	71.5	0	2	292	0.00	29.971 
12:25	83.8	83.8	88.6	65	70.7	0	1	292	0.00	29.971 
12:30	83.8	83.8	88.8	66	71.2	0	2	292	0.00	29.969 
12:35	83.8	83.8	88.6	65	70.7	0	3	292	0.00	29.969 
12:40	84.0	84.0	89.2	66	71.4	0	1	292	0.00	29.969 
12:45	84.0	84.0	88.9	65	70.9	0	2	292	0.00	29.962 
12:50	83.8	83.8	88.6	65	70.7	0	2	292	0.00	29.962 
12:55	83.4	83.4	88.1	66	70.8	0	2	292	0.00	29.962 
13:00	83.4	83.4	88.1	66	70.8	1	2	292	0.00	29.955 
13:05	83.4	83.4	88.4	67	71.3	0	2	292	0.00	29.955 
13:10	83.6	83.6	88.5	66	71.0	0	2	292	0.00	29.955 
13:15	84.0	84.0	89.2	66	71.4	0	1	292	0.00	29.951 
13:20	84.0	84.0	89.2	66	71.4	0	1	292	0.00	29.951 
13:25	84.3	84.3	89.5	65	71.2	1	2	292	0.00	29.951 
13:30	84.7	84.7	90.3	65	71.6	0	2	292	0.00	29.948 
13:35	84.9	84.9	90.4	64	71.3	1	3	292	0.00	29.948 
13:40	85.1	85.1	91.1	65	72.0	0	2	292	0.00	29.948 
13:45	85.3	85.3	91.2	64	71.7	1	3	292	0.00	29.940 
13:50	85.9	85.9	92.8	65	72.7	0	2	292	0.00	29.940 
13:55	86.3	86.3	92.8	63	72.2	0	2	292	0.00	29.940 
14:00	86.3	86.3	92.4	62	71.7	1	4	90	0.00	29.936 
14:05	85.9	85.9	91.6	62	71.3	1	2	90	0.00	29.936 
14:10	85.5	85.5	90.8	62	71.0	1	2	90	0.00	29.936 
14:15	85.7	85.7	92.0	64	72.1	1	3	90	0.00	29.936 
14:20	86.1	86.1	92.8	64	72.5	1	4	90	0.00	29.936 
14:25	86.7	86.7	93.7	63	72.6	0	2	90	0.00	29.936 
14:30	87.4	87.4	94.8	62	72.7	1	5	90	0.00	29.927 
14:35	87.8	87.8	95.2	61	72.6	1	4	68	0.00	29.927 
14:40	88.0	88.0	96.1	62	73.3	1	4	68	0.00	29.927 
14:45	88.4	88.4	96.0	60	72.7	1	3	68	0.00	29.921 
14:50	88.2	88.2	96.1	61	73.0	1	4	292	0.00	29.921 
14:55	88.4	88.4	95.5	59	72.2	1	5	292	0.00	29.921 
15:00	88.6	88.6	95.5	58	71.9	1	3	292	0.00	29.919 
15:05	88.4	88.4	95.1	58	71.7	1	4	292	0.00	29.919 
15:10	87.6	87.6	94.3	60	72.0	1	4	292	0.00	29.919 
15:15	87.2	87.2	94.3	62	72.6	1	3	292	0.00	29.919 
15:20	87.0	87.0	93.9	62	72.4	1	4	270	0.00	29.919 
15:25	87.2	87.2	94.3	62	72.6	1	3	248	0.00	29.919 
15:30	87.6	87.6	94.7	61	72.5	1	4	292	0.00	29.909 
15:35	87.6	87.6	93.9	59	71.5	1	3	292	0.00	29.909 
15:40	87.2	87.2	93.1	59	71.1	1	4	270	0.00	29.909 
15:45	87.2	87.2	93.5	60	71.6	1	3	292	0.00	29.905 
15:50	87.4	87.4	94.8	62	72.7	1	3	292	0.00	29.905 
15:55	88.2	88.2	96.1	61	73.0	0	2	292	0.00	29.905 
16:00	88.6	88.6	96.0	59	72.4	1	4	292	0.00	29.900 
16:05	88.6	88.6	96.0	59	72.4	1	4	292	0.00	29.900 
16:10	89.0	89.0	96.8	59	72.8	1	2	292	0.00	29.900 
16:15	89.5	89.5	97.4	58	72.7	1	2	292	0.00	29.895 
16:20	89.9	89.9	97.3	56	72.1	1	3	292	0.00	29.895 
16:25	89.9	89.9	97.8	57	72.6	1	2	315	0.00	29.895 
16:30	89.7	89.7	97.9	58	72.9	1	3	315	0.00	29.889 
16:35	89.5	89.5	96.9	57	72.2	1	2	248	0.00	29.889 
16:40	89.7	89.7	96.9	56	71.9	1	2	248	0.00	29.889 
16:45	89.7	89.7	97.4	57	72.4	0	2	0	0.00	29.889 
16:50	89.7	89.7	97.4	57	72.4	1	2	338	0.00	29.889 
16:55	89.3	89.3	97.0	58	72.5	0	2	338	0.00	29.889 
17:00	89.3	89.3	98.0	60	73.6	1	2	338	0.00	29.887 
17:05	89.7	89.7	97.9	58	72.9	1	3	338	0.00	29.887 
17:10	90.3	90.3	98.2	56	72.4	0	2	338	0.00	29.887 
17:15	90.3	90.3	97.1	54	71.4	2	5	270	0.00	29.888 
17:20	90.1	90.1	96.7	54	71.2	1	6	270	0.00	29.888 
17:25	90.1	90.1	96.7	54	71.2	1	6	270	0.00	29.888 
17:30	90.3	90.3	97.1	54	71.4	1	4	270	0.00	29.888 
17:35	90.3	90.3	96.1	52	70.2	2	5	270	0.00	29.888 
17:40	89.9	89.9	96.3	54	71.0	1	4	270	0.00	29.888 
17:45	89.7	89.7	96.4	55	71.3	1	4	270	0.00	29.885 
17:50	89.9	89.9	96.3	54	71.0	2	4	270	0.00	29.885 
17:55	89.9	89.9	95.3	52	69.9	2	5	270	0.00	29.885 
18:00	89.7	89.7	95.4	53	70.3	2	5	270	0.00	29.883 
18:05	89.5	89.5	95.5	54	70.6	1	4	270	0.00	29.883 
18:10	89.3	89.3	95.1	54	70.4	1	3	270	0.00	29.883 
18:15	89.3	89.3	96.0	56	71.5	1	4	270	0.00	29.885 
18:20	89.3	89.3	96.0	56	71.5	1	3	270	0.00	29.885 
18:25	89.3	89.3	95.5	55	71.0	0	3	270	0.00	29.885 
18:30	88.8	88.8	95.0	56	71.0	1	4	270	0.00	29.884 
18:35	88.6	88.6	95.0	57	71.4	1	3	270	0.00	29.884 
18:40	88.6	88.6	94.6	56	70.9	1	3	270	0.00	29.884 
18:45	88.6	88.6	95.0	57	71.4	1	4	270	0.00	29.886 
18:50	88.2	88.2	94.7	58	71.5	1	4	270	0.00	29.886 
18:55	88.0	88.0	94.7	59	71.8	0	1	270	0.00	29.886 
19:00	88.0	88.0	95.1	60	72.3	0	1	270	0.00	29.888 
19:05	88.2	88.2	94.7	58	71.5	0	2	270	0.00	29.888 
19:10	88.2	88.2	94.2	57	71.0	1	4	270	0.00	29.888 
19:15	88.2	88.2	94.7	58	71.5	1	3	270	0.00	29.885 
19:20	88.0	88.0	94.3	58	71.3	1	3	270	0.00	29.885 
19:25	87.6	87.6	93.9	59	71.5	1	3	270	0.00	29.885 
19:30	87.4	87.4	93.5	59	71.3	1	3	270	0.00	29.878 
19:35	87.2	87.2	93.5	60	71.6	0	1	270	0.00	29.878 
19:40	87.0	87.0	93.1	60	71.4	0	2	270	0.00	29.878 
19:45	86.7	86.7	92.9	61	71.6	0	2	270	0.00	29.873 
19:50	86.5	86.5	92.5	61	71.4	0	2	270	0.00	29.873 
19:55	86.3	86.3	91.7	60	70.7	1	3	270	0.00	29.873 
20:00	86.1	86.1	91.3	60	70.6	0	2	270	0.00	29.875 
20:05	86.1	86.1	91.7	61	71.0	1	3	270	0.00	29.875 
20:10	85.9	85.9	91.3	61	70.9	0	2	270	0.00	29.875 
20:15	85.7	85.7	91.2	62	71.1	0	1	270	0.00	29.874 
20:20	85.5	85.5	91.2	63	71.4	0	1	270	0.00	29.874 
20:25	85.3	85.3	90.8	63	71.2	0	1	270	0.00	29.874 
20:30	85.1	85.1	90.8	64	71.5	0	1	270	0.00	29.877 
20:35	84.9	84.9	90.4	64	71.3	0	1	270	0.00	29.877 
20:40	84.7	84.7	90.3	65	71.6	0	1	270	0.00	29.877 
20:45	84.5	84.5	89.9	65	71.4	0	1	270	0.00	29.878 
20:50	84.3	84.3	89.5	65	71.2	0	1	270	0.00	29.878 
20:55	84.1	84.1	89.4	66	71.5	0	1	270	0.00	29.878 
21:00	84.1	84.1	89.4	66	71.5	0	3	90	0.00	29.877 
21:05	84.0	84.0	89.2	66	71.4	0	2	315	0.00	29.877 
21:10	84.0	84.0	89.2	66	71.4	0	2	315	0.00	29.877 
21:15	84.0	84.0	89.2	66	71.4	0	1	315	0.00	29.875 
21:20	84.0	84.0	89.2	66	71.4	0	2	315	0.00	29.875 
21:25	84.0	84.0	89.2	66	71.4	1	4	315	0.00	29.875 
21:30	83.8	83.8	88.8	66	71.2	0	3	270	0.00	29.874 
21:35	83.8	83.8	88.8	66	71.2	0	2	270	0.00	29.874 
21:40	83.6	83.6	88.7	67	71.5	0	3	270	0.00	29.874 
21:45	83.6	83.6	88.7	67	71.5	0	1	270	0.00	29.873 
21:50	83.4	83.4	88.4	67	71.3	0	2	270	0.00	29.873 
21:55	83.2	83.2	88.0	67	71.1	0	2	270	0.00	29.873 
22:00	83.2	83.2	88.0	67	71.1	0	3	270	0.00	29.873 
22:05	83.2	83.2	88.2	68	71.5	0	3	90	0.00	29.873 
22:10	83.0	83.0	87.9	68	71.3	0	2	90	0.00	29.873 
22:15	82.8	82.8	87.5	68	71.1	0	2	338	0.00	29.871 
22:20	82.6	82.6	87.3	69	71.4	1	3	248	0.00	29.871 
22:25	82.4	82.4	87.0	69	71.2	0	2	270	0.00	29.871 
22:30	82.2	82.2	86.6	69	71.0	0	2	270	0.00	29.872 
22:35	82.2	82.2	86.8	70	71.4	1	3	270	0.00	29.872 
22:40	82.0	82.0	86.4	70	71.2	0	2	270	0.00	29.872 
22:45	82.0	82.0	86.4	70	71.2	1	3	270	0.00	29.870 
22:50	81.8	81.8	86.1	70	71.0	1	3	292	0.00	29.870 
22:55	81.8	81.8	86.1	70	71.0	1	4	292	0.00	29.870 
23:00	81.8	81.8	86.1	70	71.0	1	3	270	0.00	29.867 
23:05	81.6	81.6	85.9	71	71.3	0	3	270	0.00	29.867 
23:10	81.6	81.6	85.9	71	71.3	1	2	270	0.00	29.867 
23:15	81.4	81.4	85.5	71	71.1	1	5	270	0.00	29.864 
23:20	81.4	81.4	85.5	71	71.1	1	3	270	0.00	29.864 
23:25	81.4	81.4	85.5	71	71.1	1	4	270	0.00	29.864 
23:30	81.2	81.2	85.2	71	70.9	1	3	270	0.00	29.869 
23:35	81.2	81.2	85.2	71	70.9	1	4	270	0.00	29.869 
23:40	81.2	81.2	85.2	71	70.9	1	4	270	0.00	29.869 
23:45	81.2	81.2	85.2	71	70.9	1	3	270	0.00	29.869 
23:50	81.2	81.2	85.0	70	70.5	1	3	270	0.00	29.869 
23:55	81.2	81.2	85.0	70	70.5	1	3	270	0.00	29.869 

CoCoRaHS
IN-AL-39
A2 Web Hosting
Creative Commons License
GoDaddy
search engine by freefind advanced

loaded 2018-11-19 11:22:28 • last modified 2010-11-18 10:43:29
Privacy PolicyDisclaimer
• wx.awcolley.com is powered by PmWiki v.2002016 •
• all content (unless otherwise noted) © 2018 A W Colley